sensor_id;sensor_type;location;lat;lon;timestamp;pressure;altitude;pressure_sealevel;temperature
11321;BMP180;5715;48.234;14.320;2024-03-02T00:02:23;97615.00;;;16.50
11321;BMP180;5715;48.234;14.320;2024-03-02T00:05:13;97615.00;;;16.40
11321;BMP180;5715;48.234;14.320;2024-03-02T00:08:04;97612.00;;;16.40
11321;BMP180;5715;48.234;14.320;2024-03-02T00:11:00;97612.00;;;16.40
11321;BMP180;5715;48.234;14.320;2024-03-02T00:13:53;97607.00;;;16.30
11321;BMP180;5715;48.234;14.320;2024-03-02T00:16:41;97605.00;;;16.30
11321;BMP180;5715;48.234;14.320;2024-03-02T00:19:29;97602.00;;;16.30
11321;BMP180;5715;48.234;14.320;2024-03-02T00:22:17;97604.00;;;16.30
11321;BMP180;5715;48.234;14.320;2024-03-02T00:25:05;97605.00;;;16.40
11321;BMP180;5715;48.234;14.320;2024-03-02T00:27:55;97603.00;;;16.40
11321;BMP180;5715;48.234;14.320;2024-03-02T00:33:46;97596.00;;;16.20
11321;BMP180;5715;48.234;14.320;2024-03-02T00:36:34;97598.00;;;16.10
11321;BMP180;5715;48.234;14.320;2024-03-02T00:39:21;97596.00;;;16.10
11321;BMP180;5715;48.234;14.320;2024-03-02T00:42:11;97599.00;;;16.10
11321;BMP180;5715;48.234;14.320;2024-03-02T00:44:59;97599.00;;;16.10
11321;BMP180;5715;48.234;14.320;2024-03-02T00:47:47;97599.00;;;16.00
11321;BMP180;5715;48.234;14.320;2024-03-02T00:50:34;97598.00;;;15.90
11321;BMP180;5715;48.234;14.320;2024-03-02T00:53:26;97604.00;;;15.80
11321;BMP180;5715;48.234;14.320;2024-03-02T00:56:13;97604.00;;;15.70
11321;BMP180;5715;48.234;14.320;2024-03-02T00:59:01;97601.00;;;15.60
11321;BMP180;5715;48.234;14.320;2024-03-02T01:01:49;97598.00;;;15.60
11321;BMP180;5715;48.234;14.320;2024-03-02T01:04:37;97593.00;;;15.60
11321;BMP180;5715;48.234;14.320;2024-03-02T01:07:24;97599.00;;;15.60
11321;BMP180;5715;48.234;14.320;2024-03-02T01:10:12;97607.00;;;15.50
11321;BMP180;5715;48.234;14.320;2024-03-02T01:13:00;97595.00;;;15.50
11321;BMP180;5715;48.234;14.320;2024-03-02T01:15:48;97595.00;;;15.40
11321;BMP180;5715;48.234;14.320;2024-03-02T01:18:35;97592.00;;;15.30
11321;BMP180;5715;48.234;14.320;2024-03-02T01:21:23;97592.00;;;15.30
11321;BMP180;5715;48.234;14.320;2024-03-02T01:24:11;97594.00;;;15.20
11321;BMP180;5715;48.234;14.320;2024-03-02T01:26:58;97603.00;;;15.20
11321;BMP180;5715;48.234;14.320;2024-03-02T01:29:46;97603.00;;;15.20
11321;BMP180;5715;48.234;14.320;2024-03-02T01:32:33;97602.00;;;15.20
11321;BMP180;5715;48.234;14.320;2024-03-02T01:35:21;97595.00;;;15.30
11321;BMP180;5715;48.234;14.320;2024-03-02T01:38:09;97599.00;;;15.30
11321;BMP180;5715;48.234;14.320;2024-03-02T01:40:56;97590.00;;;15.40
11321;BMP180;5715;48.234;14.320;2024-03-02T01:43:45;97597.00;;;15.30
11321;BMP180;5715;48.234;14.320;2024-03-02T01:46:33;97597.00;;;15.40
11321;BMP180;5715;48.234;14.320;2024-03-02T01:49:21;97591.00;;;15.40
11321;BMP180;5715;48.234;14.320;2024-03-02T01:52:08;97590.00;;;15.40
11321;BMP180;5715;48.234;14.320;2024-03-02T01:54:56;97594.00;;;15.50
11321;BMP180;5715;48.234;14.320;2024-03-02T01:57:44;97594.00;;;15.50
11321;BMP180;5715;48.234;14.320;2024-03-02T02:00:32;97597.00;;;15.50
11321;BMP180;5715;48.234;14.320;2024-03-02T02:03:20;97589.00;;;15.40
11321;BMP180;5715;48.234;14.320;2024-03-02T02:06:08;97585.00;;;15.40
11321;BMP180;5715;48.234;14.320;2024-03-02T02:08:56;97593.00;;;15.50
11321;BMP180;5715;48.234;14.320;2024-03-02T02:11:43;97590.00;;;15.50
11321;BMP180;5715;48.234;14.320;2024-03-02T02:14:31;97587.00;;;15.60
11321;BMP180;5715;48.234;14.320;2024-03-02T02:17:19;97587.00;;;15.50
11321;BMP180;5715;48.234;14.320;2024-03-02T02:20:07;97590.00;;;15.60
11321;BMP180;5715;48.234;14.320;2024-03-02T02:23:01;97583.00;;;15.70
11321;BMP180;5715;48.234;14.320;2024-03-02T02:25:49;97585.00;;;15.70
11321;BMP180;5715;48.234;14.320;2024-03-02T02:28:37;97578.00;;;15.80
11321;BMP180;5715;48.234;14.320;2024-03-02T02:31:24;97574.00;;;15.70
11321;BMP180;5715;48.234;14.320;2024-03-02T02:34:14;97576.00;;;15.70
11321;BMP180;5715;48.234;14.320;2024-03-02T02:37:01;97566.00;;;15.90
11321;BMP180;5715;48.234;14.320;2024-03-02T02:39:49;97571.00;;;15.80
11321;BMP180;5715;48.234;14.320;2024-03-02T02:42:37;97567.00;;;15.70
11321;BMP180;5715;48.234;14.320;2024-03-02T02:45:25;97567.00;;;15.60
11321;BMP180;5715;48.234;14.320;2024-03-02T02:48:12;97575.00;;;15.60
11321;BMP180;5715;48.234;14.320;2024-03-02T02:51:00;97570.00;;;15.60
11321;BMP180;5715;48.234;14.320;2024-03-02T02:53:48;97566.00;;;15.60
11321;BMP180;5715;48.234;14.320;2024-03-02T02:56:35;97568.00;;;15.60
11321;BMP180;5715;48.234;14.320;2024-03-02T02:59:23;97559.00;;;15.60
11321;BMP180;5715;48.234;14.320;2024-03-02T03:02:11;97555.00;;;15.60
11321;BMP180;5715;48.234;14.320;2024-03-02T03:04:58;97547.00;;;15.60
11321;BMP180;5715;48.234;14.320;2024-03-02T03:07:46;97544.00;;;15.50
11321;BMP180;5715;48.234;14.320;2024-03-02T03:10:36;97554.00;;;15.40
11321;BMP180;5715;48.234;14.320;2024-03-02T03:13:24;97549.00;;;15.30
11321;BMP180;5715;48.234;14.320;2024-03-02T03:16:11;97551.00;;;15.30
11321;BMP180;5715;48.234;14.320;2024-03-02T03:18:59;97553.00;;;15.30
11321;BMP180;5715;48.234;14.320;2024-03-02T03:21:47;97552.00;;;15.30
11321;BMP180;5715;48.234;14.320;2024-03-02T03:24:35;97551.00;;;15.30
11321;BMP180;5715;48.234;14.320;2024-03-02T03:27:22;97554.00;;;15.30
11321;BMP180;5715;48.234;14.320;2024-03-02T03:30:11;97555.00;;;15.40
11321;BMP180;5715;48.234;14.320;2024-03-02T03:32:58;97546.00;;;15.50
11321;BMP180;5715;48.234;14.320;2024-03-02T03:35:46;97551.00;;;15.50
11321;BMP180;5715;48.234;14.320;2024-03-02T03:38:33;97551.00;;;15.50
11321;BMP180;5715;48.234;14.320;2024-03-02T03:41:21;97555.00;;;15.60
11321;BMP180;5715;48.234;14.320;2024-03-02T03:44:08;97552.00;;;15.60
11321;BMP180;5715;48.234;14.320;2024-03-02T03:46:57;97557.00;;;15.60
11321;BMP180;5715;48.234;14.320;2024-03-02T03:49:44;97551.00;;;15.70
11321;BMP180;5715;48.234;14.320;2024-03-02T03:52:32;97559.00;;;15.70
11321;BMP180;5715;48.234;14.320;2024-03-02T03:55:19;97546.00;;;15.70
11321;BMP180;5715;48.234;14.320;2024-03-02T03:58:07;97548.00;;;15.70
11321;BMP180;5715;48.234;14.320;2024-03-02T04:00:55;97554.00;;;15.70
11321;BMP180;5715;48.234;14.320;2024-03-02T04:03:42;97542.00;;;15.70
11321;BMP180;5715;48.234;14.320;2024-03-02T04:06:30;97548.00;;;15.70
11321;BMP180;5715;48.234;14.320;2024-03-02T04:09:20;97544.00;;;15.70
11321;BMP180;5715;48.234;14.320;2024-03-02T04:12:08;97548.00;;;15.70
11321;BMP180;5715;48.234;14.320;2024-03-02T04:14:56;97551.00;;;15.80
11321;BMP180;5715;48.234;14.320;2024-03-02T04:17:43;97548.00;;;15.70
11321;BMP180;5715;48.234;14.320;2024-03-02T04:20:31;97551.00;;;15.70
11321;BMP180;5715;48.234;14.320;2024-03-02T04:23:19;97554.00;;;15.70
11321;BMP180;5715;48.234;14.320;2024-03-02T04:26:06;97548.00;;;15.60
11321;BMP180;5715;48.234;14.320;2024-03-02T04:28:54;97545.00;;;15.70
11321;BMP180;5715;48.234;14.320;2024-03-02T04:31:41;97545.00;;;15.70
11321;BMP180;5715;48.234;14.320;2024-03-02T04:34:29;97555.00;;;15.60
11321;BMP180;5715;48.234;14.320;2024-03-02T04:37:17;97550.00;;;15.60
11321;BMP180;5715;48.234;14.320;2024-03-02T04:40:05;97546.00;;;15.50
11321;BMP180;5715;48.234;14.320;2024-03-02T04:42:56;97554.00;;;15.70
11321;BMP180;5715;48.234;14.320;2024-03-02T04:45:44;97551.00;;;15.60
11321;BMP180;5715;48.234;14.320;2024-03-02T04:48:31;97552.00;;;15.60
11321;BMP180;5715;48.234;14.320;2024-03-02T04:51:19;97554.00;;;15.60
11321;BMP180;5715;48.234;14.320;2024-03-02T04:54:07;97546.00;;;15.60
11321;BMP180;5715;48.234;14.320;2024-03-02T04:56:54;97544.00;;;15.60
11321;BMP180;5715;48.234;14.320;2024-03-02T04:59:42;97542.00;;;15.70
11321;BMP180;5715;48.234;14.320;2024-03-02T05:02:29;97534.00;;;15.70
11321;BMP180;5715;48.234;14.320;2024-03-02T05:05:17;97542.00;;;16.00
11321;BMP180;5715;48.234;14.320;2024-03-02T05:08:05;97538.00;;;15.90
11321;BMP180;5715;48.234;14.320;2024-03-02T05:10:52;97548.00;;;16.20
11321;BMP180;5715;48.234;14.320;2024-03-02T05:13:40;97551.00;;;16.20
11321;BMP180;5715;48.234;14.320;2024-03-02T05:16:27;97542.00;;;16.20
11321;BMP180;5715;48.234;14.320;2024-03-02T05:19:15;97550.00;;;16.40
11321;BMP180;5715;48.234;14.320;2024-03-02T05:22:03;97547.00;;;16.30
11321;BMP180;5715;48.234;14.320;2024-03-02T05:24:50;97545.00;;;16.30
11321;BMP180;5715;48.234;14.320;2024-03-02T05:27:38;97552.00;;;16.40
11321;BMP180;5715;48.234;14.320;2024-03-02T05:30:26;97551.00;;;16.30
11321;BMP180;5715;48.234;14.320;2024-03-02T05:33:16;97551.00;;;16.30
11321;BMP180;5715;48.234;14.320;2024-03-02T05:36:04;97546.00;;;16.20
11321;BMP180;5715;48.234;14.320;2024-03-02T05:38:53;97549.00;;;16.20
11321;BMP180;5715;48.234;14.320;2024-03-02T05:41:40;97551.00;;;16.20
11321;BMP180;5715;48.234;14.320;2024-03-02T05:44:28;97549.00;;;16.00
11321;BMP180;5715;48.234;14.320;2024-03-02T05:47:16;97549.00;;;16.10
11321;BMP180;5715;48.234;14.320;2024-03-02T05:50:04;97543.00;;;16.10
11321;BMP180;5715;48.234;14.320;2024-03-02T05:52:52;97546.00;;;16.00
11321;BMP180;5715;48.234;14.320;2024-03-02T05:55:40;97544.00;;;15.90
11321;BMP180;5715;48.234;14.320;2024-03-02T05:58:27;97559.00;;;16.10
11321;BMP180;5715;48.234;14.320;2024-03-02T06:01:34;97559.00;;;16.10
11321;BMP180;5715;48.234;14.320;2024-03-02T06:04:22;97564.00;;;15.90
11321;BMP180;5715;48.234;14.320;2024-03-02T06:07:10;97574.00;;;16.00
11321;BMP180;5715;48.234;14.320;2024-03-02T06:09:57;97575.00;;;16.20
11321;BMP180;5715;48.234;14.320;2024-03-02T06:12:46;97572.00;;;16.20
11321;BMP180;5715;48.234;14.320;2024-03-02T06:15:33;97575.00;;;16.10
11321;BMP180;5715;48.234;14.320;2024-03-02T06:18:23;97581.00;;;16.10
11321;BMP180;5715;48.234;14.320;2024-03-02T06:21:11;97579.00;;;16.10
11321;BMP180;5715;48.234;14.320;2024-03-02T06:23:58;97588.00;;;16.20
11321;BMP180;5715;48.234;14.320;2024-03-02T06:26:46;97592.00;;;16.00
11321;BMP180;5715;48.234;14.320;2024-03-02T06:29:34;97595.00;;;16.20
11321;BMP180;5715;48.234;14.320;2024-03-02T06:32:21;97588.00;;;16.20
11321;BMP180;5715;48.234;14.320;2024-03-02T06:35:10;97587.00;;;16.20
11321;BMP180;5715;48.234;14.320;2024-03-02T06:37:58;97596.00;;;16.40
11321;BMP180;5715;48.234;14.320;2024-03-02T06:40:45;97599.00;;;16.60
11321;BMP180;5715;48.234;14.320;2024-03-02T06:43:33;97599.00;;;16.80
11321;BMP180;5715;48.234;14.320;2024-03-02T06:46:20;97593.00;;;16.60
11321;BMP180;5715;48.234;14.320;2024-03-02T06:49:08;97602.00;;;16.90
11321;BMP180;5715;48.234;14.320;2024-03-02T06:51:57;97607.00;;;16.90
11321;BMP180;5715;48.234;14.320;2024-03-02T06:54:45;97605.00;;;17.00
11321;BMP180;5715;48.234;14.320;2024-03-02T06:57:32;97615.00;;;17.00
11321;BMP180;5715;48.234;14.320;2024-03-02T07:00:23;97617.00;;;17.20
11321;BMP180;5715;48.234;14.320;2024-03-02T07:03:11;97626.00;;;17.30
11321;BMP180;5715;48.234;14.320;2024-03-02T07:06:00;97620.00;;;17.30
11321;BMP180;5715;48.234;14.320;2024-03-02T07:08:48;97625.00;;;17.40
11321;BMP180;5715;48.234;14.320;2024-03-02T07:11:35;97621.00;;;17.50
11321;BMP180;5715;48.234;14.320;2024-03-02T07:14:23;97629.00;;;17.70
11321;BMP180;5715;48.234;14.320;2024-03-02T07:17:31;97631.00;;;17.70
11321;BMP180;5715;48.234;14.320;2024-03-02T07:20:19;97641.00;;;17.50
11321;BMP180;5715;48.234;14.320;2024-03-02T07:23:07;97632.00;;;17.80
11321;BMP180;5715;48.234;14.320;2024-03-02T07:25:54;97643.00;;;17.80
11321;BMP180;5715;48.234;14.320;2024-03-02T07:28:47;97643.00;;;17.90
11321;BMP180;5715;48.234;14.320;2024-03-02T07:31:37;97649.00;;;17.90
11321;BMP180;5715;48.234;14.320;2024-03-02T07:34:25;97647.00;;;18.00
11321;BMP180;5715;48.234;14.320;2024-03-02T07:37:13;97643.00;;;18.00
11321;BMP180;5715;48.234;14.320;2024-03-02T07:40:00;97639.00;;;18.20
11321;BMP180;5715;48.234;14.320;2024-03-02T07:42:48;97643.00;;;18.10
11321;BMP180;5715;48.234;14.320;2024-03-02T07:45:36;97642.00;;;18.20
11321;BMP180;5715;48.234;14.320;2024-03-02T07:48:23;97641.00;;;18.30
11321;BMP180;5715;48.234;14.320;2024-03-02T07:51:12;97642.00;;;18.30
11321;BMP180;5715;48.234;14.320;2024-03-02T07:54:01;97645.00;;;18.50
11321;BMP180;5715;48.234;14.320;2024-03-02T07:56:48;97654.00;;;18.50
11321;BMP180;5715;48.234;14.320;2024-03-02T07:59:39;97656.00;;;18.60
11321;BMP180;5715;48.234;14.320;2024-03-02T08:02:27;97656.00;;;18.60
11321;BMP180;5715;48.234;14.320;2024-03-02T08:05:15;97659.00;;;18.50
11321;BMP180;5715;48.234;14.320;2024-03-02T08:08:04;97664.00;;;18.60
11321;BMP180;5715;48.234;14.320;2024-03-02T08:10:52;97660.00;;;18.50
11321;BMP180;5715;48.234;14.320;2024-03-02T08:13:39;97656.00;;;18.60
11321;BMP180;5715;48.234;14.320;2024-03-02T08:16:27;97664.00;;;18.70
11321;BMP180;5715;48.234;14.320;2024-03-02T08:19:15;97666.00;;;18.80
11321;BMP180;5715;48.234;14.320;2024-03-02T08:22:03;97666.00;;;18.70
11321;BMP180;5715;48.234;14.320;2024-03-02T08:24:52;97663.00;;;18.80
11321;BMP180;5715;48.234;14.320;2024-03-02T08:27:40;97659.00;;;18.70
11321;BMP180;5715;48.234;14.320;2024-03-02T08:30:28;97664.00;;;18.80
11321;BMP180;5715;48.234;14.320;2024-03-02T08:33:15;97666.00;;;18.70
11321;BMP180;5715;48.234;14.320;2024-03-02T08:36:03;97667.00;;;18.90
11321;BMP180;5715;48.234;14.320;2024-03-02T08:38:51;97655.00;;;19.00
11321;BMP180;5715;48.234;14.320;2024-03-02T08:41:39;97660.00;;;18.90
11321;BMP180;5715;48.234;14.320;2024-03-02T08:44:26;97664.00;;;19.10
11321;BMP180;5715;48.234;14.320;2024-03-02T08:47:14;97663.00;;;19.20
11321;BMP180;5715;48.234;14.320;2024-03-02T08:50:02;97663.00;;;19.20
11321;BMP180;5715;48.234;14.320;2024-03-02T08:52:51;97663.00;;;19.30
11321;BMP180;5715;48.234;14.320;2024-03-02T08:55:38;97665.00;;;19.50
11321;BMP180;5715;48.234;14.320;2024-03-02T08:58:26;97673.00;;;19.40
11321;BMP180;5715;48.234;14.320;2024-03-02T09:01:13;97676.00;;;19.50
11321;BMP180;5715;48.234;14.320;2024-03-02T09:04:01;97677.00;;;19.50
11321;BMP180;5715;48.234;14.320;2024-03-02T09:06:52;97682.00;;;19.50
11321;BMP180;5715;48.234;14.320;2024-03-02T09:09:39;97675.00;;;19.40
11321;BMP180;5715;48.234;14.320;2024-03-02T09:12:27;97677.00;;;19.40
11321;BMP180;5715;48.234;14.320;2024-03-02T09:15:15;97684.00;;;19.60
11321;BMP180;5715;48.234;14.320;2024-03-02T09:18:04;97680.00;;;19.60
11321;BMP180;5715;48.234;14.320;2024-03-02T09:20:51;97683.00;;;19.80
11321;BMP180;5715;48.234;14.320;2024-03-02T09:23:40;97698.00;;;19.80
11321;BMP180;5715;48.234;14.320;2024-03-02T09:26:27;97695.00;;;20.00
11321;BMP180;5715;48.234;14.320;2024-03-02T09:29:15;97691.00;;;20.10
11321;BMP180;5715;48.234;14.320;2024-03-02T09:32:04;97684.00;;;20.20
11321;BMP180;5715;48.234;14.320;2024-03-02T09:34:53;97680.00;;;20.20
11321;BMP180;5715;48.234;14.320;2024-03-02T09:37:40;97679.00;;;20.40
11321;BMP180;5715;48.234;14.320;2024-03-02T09:40:28;97676.00;;;20.40
11321;BMP180;5715;48.234;14.320;2024-03-02T09:43:16;97683.00;;;20.40
11321;BMP180;5715;48.234;14.320;2024-03-02T09:46:04;97680.00;;;20.40
11321;BMP180;5715;48.234;14.320;2024-03-02T09:48:52;97675.00;;;20.40
11321;BMP180;5715;48.234;14.320;2024-03-02T09:51:46;97678.00;;;20.50
11321;BMP180;5715;48.234;14.320;2024-03-02T09:54:34;97682.00;;;20.50
11321;BMP180;5715;48.234;14.320;2024-03-02T09:57:22;97682.00;;;20.50
11321;BMP180;5715;48.234;14.320;2024-03-02T10:00:11;97683.00;;;20.50
11321;BMP180;5715;48.234;14.320;2024-03-02T10:03:03;97683.00;;;20.80
11321;BMP180;5715;48.234;14.320;2024-03-02T10:05:52;97684.00;;;20.70
11321;BMP180;5715;48.234;14.320;2024-03-02T10:08:43;97681.00;;;20.80
11321;BMP180;5715;48.234;14.320;2024-03-02T10:11:33;97680.00;;;20.60
11321;BMP180;5715;48.234;14.320;2024-03-02T10:14:22;97674.00;;;20.90
11321;BMP180;5715;48.234;14.320;2024-03-02T10:17:12;97670.00;;;20.80
11321;BMP180;5715;48.234;14.320;2024-03-02T10:20:26;97674.00;;;20.80
11321;BMP180;5715;48.234;14.320;2024-03-02T10:23:16;97676.00;;;20.70
11321;BMP180;5715;48.234;14.320;2024-03-02T10:26:17;97671.00;;;20.60
11321;BMP180;5715;48.234;14.320;2024-03-02T10:29:07;97665.00;;;20.70
11321;BMP180;5715;48.234;14.320;2024-03-02T10:31:55;97669.00;;;20.60
11321;BMP180;5715;48.234;14.320;2024-03-02T10:34:46;97674.00;;;20.50
11321;BMP180;5715;48.234;14.320;2024-03-02T10:37:35;97670.00;;;20.70
11321;BMP180;5715;48.234;14.320;2024-03-02T10:40:23;97664.00;;;20.60
11321;BMP180;5715;48.234;14.320;2024-03-02T10:43:12;97666.00;;;20.60
11321;BMP180;5715;48.234;14.320;2024-03-02T10:45:59;97662.00;;;20.50
11321;BMP180;5715;48.234;14.320;2024-03-02T10:48:47;97665.00;;;20.40
11321;BMP180;5715;48.234;14.320;2024-03-02T10:51:36;97661.00;;;20.30
11321;BMP180;5715;48.234;14.320;2024-03-02T10:54:25;97660.00;;;20.50
11321;BMP180;5715;48.234;14.320;2024-03-02T10:57:21;97659.00;;;20.30
11321;BMP180;5715;48.234;14.320;2024-03-02T11:00:13;97658.00;;;19.90
11321;BMP180;5715;48.234;14.320;2024-03-02T11:03:07;97659.00;;;19.90
11321;BMP180;5715;48.234;14.320;2024-03-02T11:05:59;97660.00;;;20.20
11321;BMP180;5715;48.234;14.320;2024-03-02T11:08:51;97657.00;;;20.30
11321;BMP180;5715;48.234;14.320;2024-03-02T11:11:43;97654.00;;;20.40
11321;BMP180;5715;48.234;14.320;2024-03-02T11:14:33;97648.00;;;20.40
11321;BMP180;5715;48.234;14.320;2024-03-02T11:17:23;97649.00;;;20.50
11321;BMP180;5715;48.234;14.320;2024-03-02T11:20:12;97640.00;;;20.60
11321;BMP180;5715;48.234;14.320;2024-03-02T11:23:06;97636.00;;;20.90
11321;BMP180;5715;48.234;14.320;2024-03-02T11:25:54;97635.00;;;20.70
11321;BMP180;5715;48.234;14.320;2024-03-02T11:28:42;97633.00;;;20.90
11321;BMP180;5715;48.234;14.320;2024-03-02T11:31:59;97632.00;;;20.90
11321;BMP180;5715;48.234;14.320;2024-03-02T11:34:49;97628.00;;;21.10
11321;BMP180;5715;48.234;14.320;2024-03-02T11:37:37;97621.00;;;20.90
11321;BMP180;5715;48.234;14.320;2024-03-02T11:40:26;97620.00;;;20.70
11321;BMP180;5715;48.234;14.320;2024-03-02T11:43:14;97610.00;;;20.50
11321;BMP180;5715;48.234;14.320;2024-03-02T11:46:05;97612.00;;;20.60
11321;BMP180;5715;48.234;14.320;2024-03-02T11:48:55;97607.00;;;20.60
11321;BMP180;5715;48.234;14.320;2024-03-02T11:52:01;97609.00;;;20.70
11321;BMP180;5715;48.234;14.320;2024-03-02T11:54:49;97605.00;;;20.80
11321;BMP180;5715;48.234;14.320;2024-03-02T11:57:39;97597.00;;;21.30
11321;BMP180;5715;48.234;14.320;2024-03-02T12:00:27;97597.00;;;21.30
11321;BMP180;5715;48.234;14.320;2024-03-02T12:03:14;97588.00;;;21.10
11321;BMP180;5715;48.234;14.320;2024-03-02T12:06:06;97592.00;;;21.00
11321;BMP180;5715;48.234;14.320;2024-03-02T12:08:54;97585.00;;;20.90
11321;BMP180;5715;48.234;14.320;2024-03-02T12:11:42;97583.00;;;20.80
11321;BMP180;5715;48.234;14.320;2024-03-02T12:14:31;97587.00;;;21.10
11321;BMP180;5715;48.234;14.320;2024-03-02T12:17:19;97579.00;;;21.20
11321;BMP180;5715;48.234;14.320;2024-03-02T12:20:11;97583.00;;;21.20
11321;BMP180;5715;48.234;14.320;2024-03-02T12:23:02;97579.00;;;21.20
11321;BMP180;5715;48.234;14.320;2024-03-02T12:25:50;97580.00;;;20.70
11321;BMP180;5715;48.234;14.320;2024-03-02T12:28:38;97580.00;;;20.80
11321;BMP180;5715;48.234;14.320;2024-03-02T12:31:25;97574.00;;;20.90
11321;BMP180;5715;48.234;14.320;2024-03-02T12:34:15;97566.00;;;21.00
11321;BMP180;5715;48.234;14.320;2024-03-02T12:37:04;97566.00;;;20.60
11321;BMP180;5715;48.234;14.320;2024-03-02T12:39:53;97560.00;;;20.50
11321;BMP180;5715;48.234;14.320;2024-03-02T12:42:41;97560.00;;;20.60
11321;BMP180;5715;48.234;14.320;2024-03-02T12:45:31;97565.00;;;20.10
11321;BMP180;5715;48.234;14.320;2024-03-02T12:48:19;97569.00;;;20.20
11321;BMP180;5715;48.234;14.320;2024-03-02T12:51:07;97563.00;;;20.50
11321;BMP180;5715;48.234;14.320;2024-03-02T12:53:57;97563.00;;;20.50
11321;BMP180;5715;48.234;14.320;2024-03-02T12:56:44;97561.00;;;20.50
11321;BMP180;5715;48.234;14.320;2024-03-02T12:59:33;97552.00;;;20.40
11321;BMP180;5715;48.234;14.320;2024-03-02T13:02:21;97549.00;;;20.80
11321;BMP180;5715;48.234;14.320;2024-03-02T13:05:09;97547.00;;;20.80
11321;BMP180;5715;48.234;14.320;2024-03-02T13:08:00;97544.00;;;20.20
11321;BMP180;5715;48.234;14.320;2024-03-02T13:10:50;97535.00;;;20.30
11321;BMP180;5715;48.234;14.320;2024-03-02T13:13:39;97527.00;;;20.60
11321;BMP180;5715;48.234;14.320;2024-03-02T13:16:28;97519.00;;;20.20
11321;BMP180;5715;48.234;14.320;2024-03-02T13:19:23;97517.00;;;20.30
11321;BMP180;5715;48.234;14.320;2024-03-02T13:22:10;97514.00;;;20.20
11321;BMP180;5715;48.234;14.320;2024-03-02T13:24:58;97509.00;;;20.60
11321;BMP180;5715;48.234;14.320;2024-03-02T13:27:47;97515.00;;;20.60
11321;BMP180;5715;48.234;14.320;2024-03-02T13:30:35;97503.00;;;20.80
11321;BMP180;5715;48.234;14.320;2024-03-02T13:33:22;97500.00;;;20.40
11321;BMP180;5715;48.234;14.320;2024-03-02T13:36:10;97490.00;;;21.00
11321;BMP180;5715;48.234;14.320;2024-03-02T13:38:58;97495.00;;;20.80
11321;BMP180;5715;48.234;14.320;2024-03-02T13:41:45;97498.00;;;20.80
11321;BMP180;5715;48.234;14.320;2024-03-02T13:44:40;97493.00;;;21.00
11321;BMP180;5715;48.234;14.320;2024-03-02T13:47:29;97497.00;;;21.30
11321;BMP180;5715;48.234;14.320;2024-03-02T13:50:16;97490.00;;;21.20
11321;BMP180;5715;48.234;14.320;2024-03-02T13:53:04;97497.00;;;20.80
11321;BMP180;5715;48.234;14.320;2024-03-02T13:55:52;97494.00;;;21.20
11321;BMP180;5715;48.234;14.320;2024-03-02T13:58:43;97486.00;;;21.00
11321;BMP180;5715;48.234;14.320;2024-03-02T14:01:31;97484.00;;;21.10
11321;BMP180;5715;48.234;14.320;2024-03-02T14:04:20;97485.00;;;21.00
11321;BMP180;5715;48.234;14.320;2024-03-02T14:07:14;97481.00;;;21.10
11321;BMP180;5715;48.234;14.320;2024-03-02T14:10:02;97483.00;;;20.90
11321;BMP180;5715;48.234;14.320;2024-03-02T14:12:50;97483.00;;;20.80
11321;BMP180;5715;48.234;14.320;2024-03-02T14:15:38;97490.00;;;21.00
11321;BMP180;5715;48.234;14.320;2024-03-02T14:18:27;97478.00;;;21.50
11321;BMP180;5715;48.234;14.320;2024-03-02T14:21:14;97480.00;;;21.70
11321;BMP180;5715;48.234;14.320;2024-03-02T14:24:02;97478.00;;;21.30
11321;BMP180;5715;48.234;14.320;2024-03-02T14:26:50;97480.00;;;20.80
11321;BMP180;5715;48.234;14.320;2024-03-02T14:29:49;97477.00;;;21.00
11321;BMP180;5715;48.234;14.320;2024-03-02T14:32:36;97475.00;;;20.70
11321;BMP180;5715;48.234;14.320;2024-03-02T14:35:24;97472.00;;;21.20
11321;BMP180;5715;48.234;14.320;2024-03-02T14:38:13;97465.00;;;21.20
11321;BMP180;5715;48.234;14.320;2024-03-02T14:41:00;97463.00;;;20.90
11321;BMP180;5715;48.234;14.320;2024-03-02T14:43:48;97457.00;;;20.60
11321;BMP180;5715;48.234;14.320;2024-03-02T14:46:36;97459.00;;;21.10
11321;BMP180;5715;48.234;14.320;2024-03-02T14:49:25;97456.00;;;21.20
11321;BMP180;5715;48.234;14.320;2024-03-02T14:52:13;97456.00;;;21.10
11321;BMP180;5715;48.234;14.320;2024-03-02T14:55:02;97452.00;;;21.00
11321;BMP180;5715;48.234;14.320;2024-03-02T14:57:55;97450.00;;;21.00
11321;BMP180;5715;48.234;14.320;2024-03-02T15:00:42;97443.00;;;20.90
11321;BMP180;5715;48.234;14.320;2024-03-02T15:03:31;97452.00;;;21.30
11321;BMP180;5715;48.234;14.320;2024-03-02T15:06:18;97445.00;;;21.00
11321;BMP180;5715;48.234;14.320;2024-03-02T15:09:06;97445.00;;;21.30
11321;BMP180;5715;48.234;14.320;2024-03-02T15:11:54;97437.00;;;21.60
11321;BMP180;5715;48.234;14.320;2024-03-02T15:14:41;97434.00;;;21.20
11321;BMP180;5715;48.234;14.320;2024-03-02T15:17:33;97429.00;;;21.00
11321;BMP180;5715;48.234;14.320;2024-03-02T15:20:20;97421.00;;;21.30
11321;BMP180;5715;48.234;14.320;2024-03-02T15:23:09;97435.00;;;21.40
11321;BMP180;5715;48.234;14.320;2024-03-02T15:25:57;97418.00;;;21.10
11321;BMP180;5715;48.234;14.320;2024-03-02T15:28:44;97419.00;;;21.20
11321;BMP180;5715;48.234;14.320;2024-03-02T15:31:32;97409.00;;;20.70
11321;BMP180;5715;48.234;14.320;2024-03-02T15:34:21;97410.00;;;20.70
11321;BMP180;5715;48.234;14.320;2024-03-02T15:37:09;97397.00;;;20.00
11321;BMP180;5715;48.234;14.320;2024-03-02T15:39:56;97405.00;;;20.40
11321;BMP180;5715;48.234;14.320;2024-03-02T15:42:44;97398.00;;;20.70
11321;BMP180;5715;48.234;14.320;2024-03-02T15:45:32;97390.00;;;20.60
11321;BMP180;5715;48.234;14.320;2024-03-02T15:48:21;97393.00;;;20.30
11321;BMP180;5715;48.234;14.320;2024-03-02T15:51:10;97393.00;;;20.80
11321;BMP180;5715;48.234;14.320;2024-03-02T15:53:59;97393.00;;;20.90
11321;BMP180;5715;48.234;14.320;2024-03-02T15:56:47;97387.00;;;20.70
11321;BMP180;5715;48.234;14.320;2024-03-02T15:59:35;97386.00;;;21.10
11321;BMP180;5715;48.234;14.320;2024-03-02T16:02:22;97380.00;;;20.80
11321;BMP180;5715;48.234;14.320;2024-03-02T16:05:10;97386.00;;;20.80
11321;BMP180;5715;48.234;14.320;2024-03-02T16:07:58;97382.00;;;21.00
11321;BMP180;5715;48.234;14.320;2024-03-02T16:10:46;97376.00;;;20.60
11321;BMP180;5715;48.234;14.320;2024-03-02T16:13:33;97379.00;;;20.90
11321;BMP180;5715;48.234;14.320;2024-03-02T16:16:23;97382.00;;;20.60